No particular awareness of the weather is required.    There are no Weather-warnings


Meteo18 Weather Cam more information Meteo18 Weather Cam


Thunder radar more information blitzortung!


Rain radar more information rain snow radar


Visit our other weather sites:

Template documentation
and downloads

And another site



Weather Underground History page Text

Daily Summary for August 22, 2017 Units:  English    Metric   Both
« Previous Day
Next Day »
Daily Weekly Monthly Yearly Custom
  High: Low: Average:
Temperature: TemperatureC °F 14.5 °F 22.8 °F
Dew Point: DewpointC °F 12.8 °F 15 °F
Humidity: Humidity % 41 % 64 %
Wind Speed: WindSpeedKMH mph 0.0 mph 3 mph
Wind Gust: WindSpeedGustKMH mph - -
Wind:- - SE
Pressure: PressurehPa in 1015.1 in -
Precipitation: 0.0 in    
Historical Graphs
 
 
Tabular Data for August 22, 2017
Time Temperature Dew Point Pressure Wind Wind Speed Wind Gust Humidity Rainfall Rate (Hourly)
TemperatureC °F DewpointC °F PressurehPa in Calm     Humidity % HourlyPrecipMM in
00:02 18.8 °F 14.9 °F 1021.9 in Calm   4.8 mph 78 % 0.0 in
00:12 18.6 °F 14.7 °F 1021.9 in Calm   3.2 mph 78 % 0.0 in
00:17 18.4 °F 14.7 °F 1021.6 in Calm   3.2 mph 79 % 0.0 in
00:22 18.3 °F 14.6 °F 1021.6 in North 1.6 mph 3.2 mph 79 % 0.0 in
00:27 18.3 °F 14.6 °F 1021.6 in Calm   3.2 mph 79 % 0.0 in
00:32 18.2 °F 14.5 °F 1021.6 in Calm   3.2 mph 79 % 0.0 in
00:42 17.9 °F 14.4 °F 1021.6 in Calm   1.6 mph 80 % 0.0 in
00:52 17.9 °F 14.4 °F 1021.6 in Calm   1.6 mph 80 % 0.0 in
01:02 17.7 °F 14.4 °F 1021.6 in Calm   1.6 mph 81 % 0.0 in
01:12 17.6 °F 14.5 °F 1021.2 in Calm     82 % 0.0 in
01:17 17.4 °F 14.3 °F 1021.2 in Calm     82 % 0.0 in
01:22 17.3 °F 14.4 °F 1021.2 in Calm     83 % 0.0 in
01:32 17.6 °F 14.5 °F 1021.2 in NW 1.6 mph   82 % 0.0 in
01:37 17.6 °F 14.5 °F 1021.2 in Calm   1.6 mph 82 % 0.0 in
01:42 17.6 °F 14.5 °F 1021.2 in Calm   1.6 mph 82 % 0.0 in
01:52 17.6 °F 14.3 °F 1021.2 in Calm   1.6 mph 81 % 0.0 in
02:02 17.1 °F 14.2 °F 1021.2 in Calm   1.6 mph 83 % 0.0 in
02:12 17.0 °F 14.3 °F 1020.9 in WNW 1.6 mph 3.2 mph 84 % 0.0 in
02:17 16.9 °F 14.2 °F 1020.9 in Calm   3.2 mph 84 % 0.0 in
02:22 16.9 °F 14.2 °F 1020.9 in Calm   3.2 mph 84 % 0.0 in
02:32 17.0 °F 14.3 °F 1020.9 in Calm   1.6 mph 84 % 0.0 in
02:37 17.0 °F 14.1 °F 1020.9 in North 1.6 mph 1.6 mph 83 % 0.0 in
02:42 16.9 °F 14.0 °F 1020.9 in Calm   1.6 mph 83 % 0.0 in
02:52 17.0 °F 14.1 °F 1020.9 in Calm   1.6 mph 83 % 0.0 in
02:57 16.9 °F 14.0 °F 1020.9 in Calm   1.6 mph 83 % 0.0 in
03:02 16.8 °F 14.1 °F 1020.9 in Calm   1.6 mph 84 % 0.0 in
03:07 16.8 °F 14.3 °F 1020.9 in Calm   1.6 mph 85 % 0.0 in
03:12 16.9 °F 14.2 °F 1020.9 in Calm   1.6 mph 84 % 0.0 in
03:17 17.0 °F 14.1 °F 1020.9 in Calm   1.6 mph 83 % 0.0 in
03:27 16.7 °F 14.0 °F 1020.9 in WNW 1.6 mph 3.2 mph 84 % 0.0 in
03:32 16.7 °F 14.0 °F 1020.9 in WNW 1.6 mph 3.2 mph 84 % 0.0 in
03:42 16.3 °F 14.0 °F 1020.9 in WNW 1.6 mph 3.2 mph 86 % 0.0 in
03:47 16.4 °F 14.1 °F 1020.9 in WNW 1.6 mph 3.2 mph 86 % 0.0 in
03:52 16.7 °F 14.2 °F 1020.9 in Calm   3.2 mph 85 % 0.0 in
04:02 16.1 °F 13.8 °F 1020.9 in WNW 3.2 mph 3.2 mph 86 % 0.0 in
04:07 16.0 °F 13.8 °F 1020.9 in Calm   3.2 mph 87 % 0.0 in
04:12 16.2 °F 13.9 °F 1020.9 in Calm   3.2 mph 86 % 0.0 in
04:22 15.9 °F 13.7 °F 1020.9 in Calm   3.2 mph 87 % 0.0 in
04:32 15.9 °F 13.7 °F 1020.5 in Calm     87 % 0.0 in
04:42 16.1 °F 13.6 °F 1020.5 in Calm     85 % 0.0 in
04:47 15.8 °F 13.5 °F 1020.5 in Calm     86 % 0.0 in
04:52 15.6 °F 13.6 °F 1020.5 in Calm     88 % 0.0 in
05:02 15.4 °F 13.4 °F 1020.5 in Calm     88 % 0.0 in
05:22 15.7 °F 13.4 °F 1020.5 in Calm   1.6 mph 86 % 0.0 in
05:32 15.4 °F 13.2 °F 1020.5 in Calm   1.6 mph 87 % 0.0 in
05:42 15.3 °F 13.3 °F 1020.5 in North 1.6 mph 1.6 mph 88 % 0.0 in
05:47 15.3 °F 13.1 °F 1020.2 in Calm   3.2 mph 87 % 0.0 in
05:52 15.3 °F 13.3 °F 1020.5 in Calm   3.2 mph 88 % 0.0 in
05:57 15.2 °F 13.2 °F 1020.5 in Calm   1.6 mph 88 % 0.0 in
06:02 15.2 °F 13.2 °F 1020.5 in Calm   1.6 mph 88 % 0.0 in
06:12 15.1 °F 13.1 °F 1020.5 in Calm     88 % 0.0 in
06:17 15.1 °F 13.1 °F 1020.5 in Calm     88 % 0.0 in
06:22 14.9 °F 12.9 °F 1020.5 in Calm     88 % 0.0 in
06:32 14.6 °F 12.8 °F 1020.5 in Calm     89 % 0.0 in
06:42 14.7 °F 13.1 °F 1020.2 in Calm     90 % 0.0 in
06:52 14.7 °F 13.1 °F 1020.2 in Calm     90 % 0.0 in
07:02 14.6 °F 13.0 °F 1020.2 in North 1.6 mph   90 % 0.0 in
07:12 14.5 °F 12.9 °F 1020.2 in Calm   3.2 mph 90 % 0.0 in
07:17 14.6 °F 13.0 °F 1020.5 in Calm   3.2 mph 90 % 0.0 in
07:22 14.6 °F 13.0 °F 1020.2 in Calm   3.2 mph 90 % 0.0 in
07:32 14.8 °F 13.2 °F 1020.2 in Calm   1.6 mph 90 % 0.0 in
07:42 15.1 °F 13.3 °F 1020.5 in Calm   1.6 mph 89 % 0.0 in
07:52 15.4 °F 13.4 °F 1020.5 in Calm   1.6 mph 88 % 0.0 in
08:02 15.8 °F 13.8 °F 1020.2 in Calm   1.6 mph 88 % 0.0 in
08:12 16.4 °F 14.1 °F 1020.2 in NNE 1.6 mph 1.6 mph 86 % 0.0 in
08:17 16.4 °F 13.9 °F 1020.2 in NNE 3.2 mph 3.2 mph 85 % 0.0 in
08:22 16.6 °F 13.9 °F 1020.2 in NE 3.2 mph 3.2 mph 84 % 0.0 in
08:32 17.2 °F 13.9 °F 1020.2 in NNE 1.6 mph 4.8 mph 81 % 0.0 in
08:42 17.8 °F 13.9 °F 1019.9 in ENE 3.2 mph 4.8 mph 78 % 0.0 in
08:47 18.0 °F 14.1 °F 1019.9 in NE 1.6 mph 6.4 mph 78 % 0.0 in
08:52 18.2 °F 14.3 °F 1020.2 in Calm   6.4 mph 78 % 0.0 in
09:02 18.6 °F 14.5 °F 1020.2 in NE 6.4 mph 6.4 mph 77 % 0.0 in
09:12 19.0 °F 14.5 °F 1019.9 in East 6.4 mph 8.0 mph 75 % 0.0 in
09:17 19.2 °F 14.7 °F 1019.9 in East 1.6 mph 8.0 mph 75 % 0.0 in
09:22 19.4 °F 14.6 °F 1019.9 in East 1.6 mph 8.0 mph 74 % 0.0 in
09:32 20.1 °F 14.9 °F 1019.9 in SSE 4.8 mph 6.4 mph 72 % 0.0 in
09:42 21.1 °F 14.3 °F 1019.9 in East 3.2 mph 9.7 mph 65 % 0.0 in
09:52 21.6 °F 14.3 °F 1019.9 in Calm   9.7 mph 63 % 0.0 in
10:02 21.8 °F 14.4 °F 1019.9 in ENE 3.2 mph 9.7 mph 63 % 0.0 in
10:12 22.4 °F 14.8 °F 1019.9 in Calm   11.3 mph 62 % 0.0 in
10:22 22.8 °F 15.1 °F 1019.9 in ESE 1.6 mph 12.9 mph 62 % 0.0 in
10:27 22.9 °F 14.7 °F 1019.9 in South 4.8 mph 12.9 mph 60 % 0.0 in
10:37 23.3 °F 15.4 °F 1019.9 in SSE 1.6 mph 9.7 mph 61 % 0.0 in
10:42 23.6 °F 15.4 °F 1019.9 in ENE 1.6 mph 9.7 mph 60 % 0.0 in
10:47 23.9 °F 15.4 °F 1020.2 in SSE 3.2 mph 8.0 mph 59 % 0.0 in
10:57 24.1 °F 15.0 °F 1019.9 in SE 1.6 mph 8.0 mph 57 % 0.0 in
11:02 24.4 °F 15.1 °F 1019.9 in NNE 4.8 mph 8.0 mph 56 % 0.0 in
11:12 24.6 °F 15.0 °F 1019.9 in East 3.2 mph 9.7 mph 55 % 0.0 in
11:17 24.7 °F 14.8 °F 1019.9 in NE 8.0 mph 12.9 mph 54 % 0.0 in
11:22 24.8 °F 15.1 °F 1019.9 in East 8.0 mph 12.9 mph 55 % 0.0 in
11:32 24.9 °F 14.7 °F 1019.9 in ESE 6.4 mph 12.9 mph 53 % 0.0 in
11:42 25.5 °F 15.2 °F 1019.9 in ESE 1.6 mph 12.9 mph 53 % 0.0 in
11:52 25.8 °F 14.9 °F 1019.5 in SE 12.9 mph 12.9 mph 51 % 0.0 in
12:02 26.1 °F 14.9 °F 1019.5 in East 6.4 mph 14.5 mph 50 % 0.0 in
12:07 26.3 °F 15.4 °F 1019.5 in NE 3.2 mph 14.5 mph 51 % 0.0 in
12:12 26.1 °F 15.2 °F 1019.5 in SE 3.2 mph 14.5 mph 51 % 0.0 in
12:17 26.1 °F 14.9 °F 1019.5 in East 9.7 mph 14.5 mph 50 % 0.0 in
12:27 25.8 °F 14.6 °F 1019.5 in ENE 4.8 mph 14.5 mph 50 % 0.0 in
12:32 26.1 °F 14.5 °F 1019.5 in ENE 8.0 mph 14.5 mph 49 % 0.0 in
12:42 26.5 °F 14.9 °F 1019.2 in ESE 1.6 mph 14.5 mph 49 % 0.0 in
12:47 26.8 °F 15.5 °F 1019.2 in East 1.6 mph 14.5 mph 50 % 0.0 in
12:52 26.8 °F 14.9 °F 1019.2 in SW 1.6 mph 14.5 mph 48 % 0.0 in
13:02 27.1 °F 15.1 °F 1019.2 in East 8.0 mph 11.3 mph 48 % 0.0 in
13:12 26.9 °F 14.6 °F 1019.2 in Calm   11.3 mph 47 % 0.0 in
13:17 27.0 °F 15.4 °F 1019.2 in SSE 4.8 mph 14.5 mph 49 % 0.0 in
13:22 27.2 °F 15.6 °F 1018.8 in East 8.0 mph 14.5 mph 49 % 0.0 in
13:32 27.6 °F 15.9 °F 1018.8 in Calm   11.3 mph 49 % 0.0 in
13:42 27.6 °F 15.3 °F 1018.8 in East 9.7 mph 14.5 mph 47 % 0.0 in
13:52 27.2 °F 15.2 °F 1018.5 in ENE 8.0 mph 12.9 mph 48 % 0.0 in
14:02 27.8 °F 15.1 °F 1018.2 in ENE 8.0 mph 16.1 mph 46 % 0.0 in
14:07 27.9 °F 15.9 °F 1018.5 in NNE 11.3 mph 19.3 mph 48 % 0.0 in
14:12 27.7 °F 15.7 °F 1018.2 in East 3.2 mph 19.3 mph 48 % 0.0 in
14:17 27.9 °F 15.5 °F 1018.2 in ENE 19.3 mph 19.3 mph 47 % 0.0 in
14:22 27.8 °F 15.8 °F 1018.2 in ESE 3.2 mph 17.7 mph 48 % 0.0 in
14:32 28.4 °F 15.7 °F 1018.2 in ENE 8.0 mph 20.9 mph 46 % 0.0 in
14:42 28.2 °F 15.8 °F 1018.2 in NE 11.3 mph 19.3 mph 47 % 0.0 in
14:47 28.2 °F 15.8 °F 1018.2 in ENE 14.5 mph 20.9 mph 47 % 0.0 in
14:52 28.4 °F 15.7 °F 1017.8 in East 8.0 mph 20.9 mph 46 % 0.0 in
14:57 28.4 °F 15.7 °F 1017.8 in East 4.8 mph 20.9 mph 46 % 0.0 in
15:02 28.7 °F 15.6 °F 1017.8 in East 9.7 mph 20.9 mph 45 % 0.0 in
15:07 28.9 °F 15.4 °F 1017.8 in SE 3.2 mph 19.3 mph 44 % 0.0 in
15:12 28.9 °F 15.4 °F 1017.8 in ENE 11.3 mph 19.3 mph 44 % 0.0 in
15:22 28.9 °F 15.4 °F 1017.8 in ENE 4.8 mph 16.1 mph 44 % 0.0 in
15:27 29.1 °F 16.0 °F 1017.5 in ENE 12.9 mph 16.1 mph 45 % 0.0 in
15:32 29.1 °F 15.6 °F 1017.5 in ENE 9.7 mph 16.1 mph 44 % 0.0 in
15:42 29.1 °F 15.2 °F 1017.5 in ENE 8.0 mph 16.1 mph 43 % 0.0 in
15:47 29.2 °F 15.7 °F 1017.2 in East 11.3 mph 19.3 mph 44 % 0.0 in
15:52 29.3 °F 15.4 °F 1017.2 in ESE 1.6 mph 19.3 mph 43 % 0.0 in
15:57 29.6 °F 15.7 °F 1017.2 in NE 6.4 mph 16.1 mph 43 % 0.0 in
16:02 29.8 °F 15.9 °F 1017.2 in ENE 9.7 mph 16.1 mph 43 % 0.0 in
16:12 29.9 °F 16.0 °F 1017.2 in ENE 9.7 mph 16.1 mph 43 % 0.0 in
16:22 29.9 °F 15.6 °F 1016.8 in East 8.0 mph 12.9 mph 42 % 0.0 in
16:32 29.9 °F 15.2 °F 1016.5 in East 6.4 mph 14.5 mph 41 % 0.0 in
16:42 29.9 °F 15.6 °F 1016.5 in SE 4.8 mph 17.7 mph 42 % 0.0 in
16:47 30.1 °F 15.8 °F 1016.8 in ENE 3.2 mph 16.1 mph 42 % 0.0 in
16:52 30.3 °F 16.0 °F 1016.5 in ESE 11.3 mph 16.1 mph 42 % 0.0 in
16:57 30.1 °F 15.4 °F 1016.5 in East 4.8 mph 20.9 mph 41 % 0.0 in
17:02 30.3 °F 15.6 °F 1016.5 in ENE 3.2 mph 20.9 mph 41 % 0.0 in
17:12 30.3 °F 15.6 °F 1016.5 in Calm   14.5 mph 41 % 0.0 in
17:17 30.3 °F 15.6 °F 1016.5 in East 9.7 mph 11.3 mph 41 % 0.0 in
17:22 29.9 °F 15.2 °F 1016.5 in ENE 4.8 mph 11.3 mph 41 % 0.0 in
17:27 29.8 °F 15.5 °F 1016.5 in ESE 4.8 mph 11.3 mph 42 % 0.0 in
17:37 29.7 °F 15.8 °F 1016.5 in Calm   9.7 mph 43 % 0.0 in
17:42 29.8 °F 15.5 °F 1016.1 in ENE 4.8 mph 9.7 mph 42 % 0.0 in
17:47 29.9 °F 15.2 °F 1016.1 in ENE 3.2 mph 9.7 mph 41 % 0.0 in
17:52 29.9 °F 15.6 °F 1016.1 in ENE 1.6 mph 9.7 mph 42 % 0.0 in
17:57 30.3 °F 16.0 °F 1016.1 in ENE 6.4 mph 9.7 mph 42 % 0.0 in
18:02 30.2 °F 15.5 °F 1016.1 in ENE 9.7 mph 9.7 mph 41 % 0.0 in
18:12 29.9 °F 15.2 °F 1016.1 in ENE 6.4 mph 11.3 mph 41 % 0.0 in
18:17 29.7 °F 15.4 °F 1016.1 in ENE 8.0 mph 12.9 mph 42 % 0.0 in
18:22 29.5 °F 15.6 °F 1016.1 in East 1.6 mph 12.9 mph 43 % 0.0 in
18:27 29.4 °F 15.5 °F 1016.1 in East 8.0 mph 12.9 mph 43 % 0.0 in
18:32 29.4 °F 15.5 °F 1015.8 in East 4.8 mph 11.3 mph 43 % 0.0 in
18:37 29.4 °F 15.5 °F 1015.8 in East 4.8 mph 11.3 mph 43 % 0.0 in
18:42 29.4 °F 15.9 °F 1015.8 in ENE 3.2 mph 12.9 mph 44 % 0.0 in
18:52 29.2 °F 15.7 °F 1015.8 in East 3.2 mph 9.7 mph 44 % 0.0 in
18:57 29.1 °F 15.6 °F 1015.8 in East 6.4 mph 11.3 mph 44 % 0.0 in
19:02 29.0 °F 15.5 °F 1015.8 in East 3.2 mph 11.3 mph 44 % 0.0 in
19:12 28.8 °F 15.7 °F 1015.5 in ENE 3.2 mph 9.7 mph 45 % 0.0 in
19:17 28.7 °F 15.6 °F 1015.5 in ENE 3.2 mph 8.0 mph 45 % 0.0 in
19:22 28.7 °F 15.9 °F 1015.5 in East 4.8 mph 8.0 mph 46 % 0.0 in
19:27 28.6 °F 15.8 °F 1015.5 in East 4.8 mph 8.0 mph 46 % 0.0 in
19:32 28.6 °F 15.8 °F 1015.5 in Calm   8.0 mph 46 % 0.0 in
19:37 28.5 °F 15.8 °F 1015.5 in ENE 3.2 mph 8.0 mph 46 % 0.0 in
19:42 28.4 °F 15.7 °F 1015.5 in ENE 6.4 mph 8.0 mph 46 % 0.0 in
19:47 28.5 °F 15.8 °F 1015.1 in ENE 4.8 mph 9.7 mph 46 % 0.0 in
19:52 28.5 °F 15.8 °F 1015.5 in Calm   9.7 mph 46 % 0.0 in
19:57 28.6 °F 15.8 °F 1015.5 in ENE 3.2 mph 11.3 mph 46 % 0.0 in
20:02 28.5 °F 15.8 °F 1015.5 in East 1.6 mph 11.3 mph 46 % 0.0 in
20:12 28.3 °F 15.6 °F 1015.5 in ENE 1.6 mph 8.0 mph 46 % 0.0 in
20:17 28.2 °F 15.8 °F 1015.5 in East 1.6 mph 8.0 mph 47 % 0.0 in
20:22 27.8 °F 15.8 °F 1015.5 in East 3.2 mph 8.0 mph 48 % 0.0 in
20:32 27.2 °F 16.2 °F 1015.5 in NE 1.6 mph 4.8 mph 51 % 0.0 in
20:37 27.1 °F 16.4 °F 1015.5 in ENE 3.2 mph 6.4 mph 52 % 0.0 in
20:42 26.8 °F 16.7 °F 1015.1 in NE 8.0 mph 8.0 mph 54 % 0.0 in
20:52 26.2 °F 16.4 °F 1015.1 in NE 3.2 mph 8.0 mph 55 % 0.0 in
21:02 25.7 °F 16.5 °F 1015.1 in Calm   8.0 mph 57 % 0.0 in
21:07 25.3 °F 16.4 °F 1015.5 in Calm   4.8 mph 58 % 0.0 in
21:17 25.1 °F 16.8 °F 1015.5 in NW 1.6 mph 3.2 mph 60 % 0.0 in
21:22 24.7 °F 16.7 °F 1015.5 in Calm   3.2 mph 61 % 0.0 in
21:32 24.4 °F 16.6 °F 1015.5 in Calm   1.6 mph 62 % 0.0 in
21:37 24.1 °F 16.6 °F 1015.5 in NNW 1.6 mph 1.6 mph 63 % 0.0 in
21:42 23.9 °F 16.7 °F 1015.5 in North 1.6 mph 1.6 mph 64 % 0.0 in
21:47 23.8 °F 16.6 °F 1015.5 in Calm   3.2 mph 64 % 0.0 in
21:52 23.7 °F 16.7 °F 1015.5 in NNW 1.6 mph 3.2 mph 65 % 0.0 in
22:02 23.1 °F 16.6 °F 1015.5 in WNW 1.6 mph 3.2 mph 67 % 0.0 in
22:12 23.3 °F 16.6 °F 1015.5 in Calm   3.2 mph 66 % 0.0 in
22:17 23.1 °F 16.6 °F 1015.5 in WNW 1.6 mph 3.2 mph 67 % 0.0 in
22:22 22.6 °F 16.4 °F 1015.5 in WNW 1.6 mph 3.2 mph 68 % 0.0 in
22:32 22.8 °F 16.4 °F 1015.5 in Calm   3.2 mph 67 % 0.0 in
22:37 22.7 °F 16.5 °F 1015.5 in WNW 1.6 mph 4.8 mph 68 % 0.0 in
22:42 22.2 °F 16.7 °F 1015.5 in WNW 1.6 mph 4.8 mph 71 % 0.0 in
22:47 22.1 °F 16.4 °F 1015.5 in NW 1.6 mph 3.2 mph 70 % 0.0 in
22:52 22.3 °F 16.3 °F 1015.5 in NW 1.6 mph 3.2 mph 69 % 0.0 in
22:57 22.6 °F 16.4 °F 1015.5 in North 3.2 mph 3.2 mph 68 % 0.0 in
23:02 22.4 °F 16.2 °F 1015.5 in North 1.6 mph 3.2 mph 68 % 0.0 in
23:12 22.7 °F 16.3 °F 1015.5 in Calm   3.2 mph 67 % 0.0 in
23:17 22.3 °F 16.3 °F 1015.5 in WNW 1.6 mph 3.2 mph 69 % 0.0 in
23:22 21.8 °F 16.5 °F 1015.5 in WNW 3.2 mph 3.2 mph 72 % 0.0 in
23:27 21.6 °F 16.6 °F 1015.5 in WNW 1.6 mph 3.2 mph 73 % 0.0 in
23:32 21.3 °F 16.3 °F 1015.5 in WNW 1.6 mph 3.2 mph 73 % 0.0 in
23:42 21.6 °F 16.3 °F 1015.5 in Calm   3.2 mph 72 % 0.0 in
23:47 21.7 °F 16.4 °F 1015.5 in Calm   1.6 mph 72 % 0.0 in
23:52 21.7 °F 16.4 °F 1015.5 in Calm   1.6 mph 72 % 0.0 in
23:57 21.3 °F 16.3 °F 1015.5 in Calm   1.6 mph 73 % 0.0 in
Meteo18
Compliments of Weather Underground - 4 mb

Script developed by  Jim McMurry - jmcmurry@mwt.net Adapted for the template by  Wim van der Kuil - Leuven-Template.eu

You find our weather info also at:

European Weather Network

Weather Underground

Equipment we use:

Weather-station
Davis Vue

Weather-program
Meteobridge

Weather-server
Raspberry PI 2 B+

Provider
1 and 1

Davis Vue

Meteobridge

Raspberry PI 2 B+

1 and 1